• vieta
  • image
  • image
  • image
mod_vvisit_countermod_vvisit_countermod_vvisit_countermod_vvisit_countermod_vvisit_countermod_vvisit_counter
mod_vvisit_counterŠiandien157
mod_vvisit_counterVakar942
mod_vvisit_counterŠią savaitę4566
mod_vvisit_counterPraėjusią savaitę6203
mod_vvisit_counterŠį mėnesį17262
mod_vvisit_counterPraėjusį mėnesį16929
mod_vvisit_counterViso980188

Mes turime: 20 svečius, 1 bots online
Jūsų IP: 54.156.51.193
 , 
Šiandien: Rugs 23, 2018
Oro uostas / Informacija keleiviams / Taisyklės / Pasienio kontrolė

Pasienio kontrolė

Šiame skyriuje Jums pateikiame naudingą nuorodą į Valstybės sienos apsaugos tarnybos (VSAT) internetinę svetainę, kurioje rasite aktualios informacijos, tokios kaip: bendroji informacija, ką reikia žinoti keliaujant su vaiku, asmens tapatybės kortelės, vizos ir kitą.

Minėta informaciją rasite čia: Valstybės sienos apsaugos tarnyba

Šiandien

Sekmadienis, 23 Rugsėjis 2018

Orų prognozė aviacijai

[source: ADDS]
METAR
EYSA 230050Z 20010KT CAVOK 09/07 Q1008 BLU NOSIG =
TAF EYSA 222309Z 2300/2309 23014KT 9000 BKN025 TEMPO 2300/2303 5000 -TSRA SCT005 BKN015CB TEMPO 2303/2309 3000 TSRA SCT005 BKN015CB
TAF
TAF EYSA 222309Z 2300/2309 23014KT 9000 BKN025 TEMPO 2300/2303 5000 -TSRA SCT005 BKN015CB TEMPO 2303/2309 3000 TSRA SCT005 BKN015CB =
SR / SS: 04:15 / 16:24 UTC (EYSA 2018-09-23)

Paieška

Lankytojai

Mes turime 21 svečius online

tic logo lt